sensor_id;sensor_type;location;lat;lon;timestamp;P1;durP1;ratioP1;P2;durP2;ratioP2
15929;SDS011;8064;51.142;4.780;2023-06-14T00:00:19;43.10;;;40.65;;
15929;SDS011;8064;51.142;4.780;2023-06-14T00:02:45;38.75;;;36.75;;
15929;SDS011;8064;51.142;4.780;2023-06-14T00:05:12;43.38;;;40.83;;
15929;SDS011;8064;51.142;4.780;2023-06-14T00:07:39;38.30;;;36.15;;
15929;SDS011;8064;51.142;4.780;2023-06-14T00:10:21;40.70;;;38.22;;
15929;SDS011;8064;51.142;4.780;2023-06-14T00:12:47;43.83;;;41.23;;
15929;SDS011;8064;51.142;4.780;2023-06-14T00:15:13;38.90;;;36.67;;
15929;SDS011;8064;51.142;4.780;2023-06-14T00:17:39;32.27;;;30.27;;
15929;SDS011;8064;51.142;4.780;2023-06-14T00:20:05;34.07;;;32.27;;
15929;SDS011;8064;51.142;4.780;2023-06-14T00:22:31;31.90;;;30.00;;
15929;SDS011;8064;51.142;4.780;2023-06-14T00:24:58;28.57;;;26.93;;
15929;SDS011;8064;51.142;4.780;2023-06-14T00:27:23;28.50;;;26.90;;
15929;SDS011;8064;51.142;4.780;2023-06-14T00:29:50;31.07;;;29.10;;
15929;SDS011;8064;51.142;4.780;2023-06-14T00:32:16;33.57;;;31.47;;
15929;SDS011;8064;51.142;4.780;2023-06-14T00:34:43;35.90;;;33.90;;
15929;SDS011;8064;51.142;4.780;2023-06-14T00:37:09;35.37;;;33.37;;
15929;SDS011;8064;51.142;4.780;2023-06-14T00:39:35;33.27;;;31.13;;
15929;SDS011;8064;51.142;4.780;2023-06-14T00:42:00;35.73;;;33.30;;
15929;SDS011;8064;51.142;4.780;2023-06-14T00:44:26;35.70;;;33.80;;
15929;SDS011;8064;51.142;4.780;2023-06-14T00:46:52;36.93;;;34.90;;
15929;SDS011;8064;51.142;4.780;2023-06-14T00:49:18;35.97;;;34.07;;
15929;SDS011;8064;51.142;4.780;2023-06-14T00:51:45;35.80;;;33.90;;
15929;SDS011;8064;51.142;4.780;2023-06-14T00:54:11;34.77;;;32.97;;
15929;SDS011;8064;51.142;4.780;2023-06-14T00:56:37;34.13;;;32.33;;
15929;SDS011;8064;51.142;4.780;2023-06-14T00:59:03;33.67;;;31.60;;
15929;SDS011;8064;51.142;4.780;2023-06-14T01:01:30;33.13;;;31.27;;
15929;SDS011;8064;51.142;4.780;2023-06-14T01:04:08;32.60;;;30.80;;
15929;SDS011;8064;51.142;4.780;2023-06-14T01:06:40;35.30;;;33.30;;
15929;SDS011;8064;51.142;4.780;2023-06-14T01:09:12;31.77;;;29.90;;
15929;SDS011;8064;51.142;4.780;2023-06-14T01:14:19;29.13;;;27.20;;
15929;SDS011;8064;51.142;4.780;2023-06-14T01:16:46;30.20;;;28.40;;
15929;SDS011;8064;51.142;4.780;2023-06-14T01:19:18;30.80;;;28.80;;
15929;SDS011;8064;51.142;4.780;2023-06-14T01:21:48;30.40;;;28.50;;
15929;SDS011;8064;51.142;4.780;2023-06-14T01:24:16;31.73;;;29.90;;
15929;SDS011;8064;51.142;4.780;2023-06-14T01:26:44;31.13;;;29.20;;
15929;SDS011;8064;51.142;4.780;2023-06-14T01:29:16;32.17;;;30.43;;
15929;SDS011;8064;51.142;4.780;2023-06-14T01:31:42;29.43;;;27.57;;
15929;SDS011;8064;51.142;4.780;2023-06-14T01:34:10;37.00;;;35.07;;
15929;SDS011;8064;51.142;4.780;2023-06-14T01:36:36;30.53;;;28.63;;
15929;SDS011;8064;51.142;4.780;2023-06-14T01:39:05;29.40;;;27.57;;
15929;SDS011;8064;51.142;4.780;2023-06-14T01:41:32;29.10;;;27.23;;
15929;SDS011;8064;51.142;4.780;2023-06-14T01:43:59;35.83;;;33.57;;
15929;SDS011;8064;51.142;4.780;2023-06-14T01:46:26;33.97;;;32.07;;
15929;SDS011;8064;51.142;4.780;2023-06-14T01:48:52;35.20;;;33.20;;
15929;SDS011;8064;51.142;4.780;2023-06-14T01:51:18;35.57;;;33.40;;
15929;SDS011;8064;51.142;4.780;2023-06-14T01:53:44;32.13;;;30.23;;
15929;SDS011;8064;51.142;4.780;2023-06-14T01:56:10;31.10;;;29.37;;
15929;SDS011;8064;51.142;4.780;2023-06-14T01:58:35;39.37;;;37.20;;
15929;SDS011;8064;51.142;4.780;2023-06-14T02:01:01;34.77;;;32.80;;
15929;SDS011;8064;51.142;4.780;2023-06-14T02:03:27;34.53;;;32.50;;
15929;SDS011;8064;51.142;4.780;2023-06-14T02:05:53;35.70;;;33.40;;
15929;SDS011;8064;51.142;4.780;2023-06-14T02:08:20;36.13;;;34.07;;
15929;SDS011;8064;51.142;4.780;2023-06-14T02:10:46;32.67;;;30.67;;
15929;SDS011;8064;51.142;4.780;2023-06-14T02:13:12;33.97;;;31.83;;
15929;SDS011;8064;51.142;4.780;2023-06-14T02:15:37;33.63;;;31.63;;
15929;SDS011;8064;51.142;4.780;2023-06-14T02:18:03;31.77;;;30.17;;
15929;SDS011;8064;51.142;4.780;2023-06-14T02:20:29;34.60;;;32.60;;
15929;SDS011;8064;51.142;4.780;2023-06-14T02:22:56;32.73;;;31.03;;
15929;SDS011;8064;51.142;4.780;2023-06-14T02:25:22;32.87;;;30.97;;
15929;SDS011;8064;51.142;4.780;2023-06-14T02:27:48;32.37;;;30.47;;
15929;SDS011;8064;51.142;4.780;2023-06-14T02:30:13;34.83;;;32.83;;
15929;SDS011;8064;51.142;4.780;2023-06-14T02:32:40;47.67;;;45.10;;
15929;SDS011;8064;51.142;4.780;2023-06-14T02:35:07;36.03;;;33.73;;
15929;SDS011;8064;51.142;4.780;2023-06-14T02:37:33;35.47;;;33.60;;
15929;SDS011;8064;51.142;4.780;2023-06-14T02:40:00;33.40;;;31.40;;
15929;SDS011;8064;51.142;4.780;2023-06-14T02:42:26;34.10;;;32.10;;
15929;SDS011;8064;51.142;4.780;2023-06-14T02:44:51;35.73;;;33.73;;
15929;SDS011;8064;51.142;4.780;2023-06-14T02:47:17;38.73;;;36.70;;
15929;SDS011;8064;51.142;4.780;2023-06-14T02:49:44;37.03;;;34.97;;
15929;SDS011;8064;51.142;4.780;2023-06-14T02:52:11;33.00;;;31.00;;
15929;SDS011;8064;51.142;4.780;2023-06-14T02:54:37;36.87;;;34.90;;
15929;SDS011;8064;51.142;4.780;2023-06-14T02:57:03;36.50;;;34.40;;
15929;SDS011;8064;51.142;4.780;2023-06-14T02:59:29;35.53;;;33.23;;
15929;SDS011;8064;51.142;4.780;2023-06-14T03:01:55;34.40;;;32.37;;
15929;SDS011;8064;51.142;4.780;2023-06-14T03:04:21;27.87;;;26.27;;
15929;SDS011;8064;51.142;4.780;2023-06-14T03:06:47;33.03;;;31.20;;
15929;SDS011;8064;51.142;4.780;2023-06-14T03:09:15;32.20;;;30.30;;
15929;SDS011;8064;51.142;4.780;2023-06-14T03:11:41;29.13;;;27.33;;
15929;SDS011;8064;51.142;4.780;2023-06-14T03:14:07;28.33;;;26.53;;
15929;SDS011;8064;51.142;4.780;2023-06-14T03:16:33;26.37;;;24.60;;
15929;SDS011;8064;51.142;4.780;2023-06-14T03:18:59;27.73;;;25.63;;
15929;SDS011;8064;51.142;4.780;2023-06-14T03:21:25;24.43;;;22.73;;
15929;SDS011;8064;51.142;4.780;2023-06-14T03:23:51;23.67;;;22.23;;
15929;SDS011;8064;51.142;4.780;2023-06-14T03:26:18;26.27;;;24.67;;
15929;SDS011;8064;51.142;4.780;2023-06-14T03:28:45;28.60;;;26.87;;
15929;SDS011;8064;51.142;4.780;2023-06-14T03:31:11;22.30;;;20.73;;
15929;SDS011;8064;51.142;4.780;2023-06-14T03:33:38;26.23;;;24.70;;
15929;SDS011;8064;51.142;4.780;2023-06-14T03:36:04;19.33;;;17.93;;
15929;SDS011;8064;51.142;4.780;2023-06-14T03:38:32;23.23;;;21.83;;
15929;SDS011;8064;51.142;4.780;2023-06-14T03:40:58;24.63;;;23.00;;
15929;SDS011;8064;51.142;4.780;2023-06-14T03:43:24;20.60;;;19.07;;
15929;SDS011;8064;51.142;4.780;2023-06-14T03:45:50;19.67;;;18.40;;
15929;SDS011;8064;51.142;4.780;2023-06-14T03:48:16;20.40;;;18.90;;
15929;SDS011;8064;51.142;4.780;2023-06-14T03:50:42;22.23;;;20.57;;
15929;SDS011;8064;51.142;4.780;2023-06-14T03:53:08;34.20;;;31.87;;
15929;SDS011;8064;51.142;4.780;2023-06-14T03:55:34;35.50;;;33.50;;
15929;SDS011;8064;51.142;4.780;2023-06-14T03:58:00;38.77;;;36.77;;
15929;SDS011;8064;51.142;4.780;2023-06-14T04:00:26;38.87;;;36.63;;
15929;SDS011;8064;51.142;4.780;2023-06-14T04:02:52;38.37;;;35.67;;
15929;SDS011;8064;51.142;4.780;2023-06-14T04:05:18;44.03;;;41.20;;
15929;SDS011;8064;51.142;4.780;2023-06-14T04:07:45;41.47;;;39.17;;
15929;SDS011;8064;51.142;4.780;2023-06-14T04:10:12;51.53;;;48.90;;
15929;SDS011;8064;51.142;4.780;2023-06-14T04:12:38;45.43;;;42.73;;
15929;SDS011;8064;51.142;4.780;2023-06-14T04:15:04;46.27;;;43.77;;
15929;SDS011;8064;51.142;4.780;2023-06-14T04:17:31;48.20;;;45.50;;
15929;SDS011;8064;51.142;4.780;2023-06-14T04:19:58;54.63;;;51.73;;
15929;SDS011;8064;51.142;4.780;2023-06-14T04:22:25;48.97;;;46.37;;
15929;SDS011;8064;51.142;4.780;2023-06-14T04:24:54;49.03;;;46.43;;
15929;SDS011;8064;51.142;4.780;2023-06-14T04:27:21;56.97;;;53.90;;
15929;SDS011;8064;51.142;4.780;2023-06-14T04:29:51;50.07;;;47.37;;
15929;SDS011;8064;51.142;4.780;2023-06-14T04:32:23;49.63;;;47.13;;
15929;SDS011;8064;51.142;4.780;2023-06-14T04:34:52;46.87;;;44.17;;
15929;SDS011;8064;51.142;4.780;2023-06-14T04:37:19;45.23;;;42.70;;
15929;SDS011;8064;51.142;4.780;2023-06-14T04:39:46;53.73;;;50.20;;
15929;SDS011;8064;51.142;4.780;2023-06-14T04:42:13;47.67;;;45.00;;
15929;SDS011;8064;51.142;4.780;2023-06-14T04:44:40;50.20;;;47.50;;
15929;SDS011;8064;51.142;4.780;2023-06-14T04:47:09;46.77;;;43.80;;
15929;SDS011;8064;51.142;4.780;2023-06-14T04:49:36;52.30;;;48.80;;
15929;SDS011;8064;51.142;4.780;2023-06-14T04:52:02;81.93;;;77.73;;
15929;SDS011;8064;51.142;4.780;2023-06-14T04:54:28;63.83;;;60.40;;
15929;SDS011;8064;51.142;4.780;2023-06-14T04:56:56;63.60;;;60.20;;
15929;SDS011;8064;51.142;4.780;2023-06-14T04:59:22;63.00;;;59.37;;
15929;SDS011;8064;51.142;4.780;2023-06-14T05:01:48;49.00;;;46.23;;
15929;SDS011;8064;51.142;4.780;2023-06-14T05:04:15;71.40;;;67.50;;
15929;SDS011;8064;51.142;4.780;2023-06-14T05:06:43;48.87;;;46.13;;
15929;SDS011;8064;51.142;4.780;2023-06-14T05:09:10;65.57;;;62.00;;
15929;SDS011;8064;51.142;4.780;2023-06-14T05:11:38;58.83;;;55.73;;
15929;SDS011;8064;51.142;4.780;2023-06-14T05:14:04;62.10;;;58.63;;
15929;SDS011;8064;51.142;4.780;2023-06-14T05:16:31;61.90;;;58.43;;
15929;SDS011;8064;51.142;4.780;2023-06-14T05:18:57;62.87;;;59.47;;
15929;SDS011;8064;51.142;4.780;2023-06-14T05:21:23;60.83;;;57.33;;
15929;SDS011;8064;51.142;4.780;2023-06-14T05:23:49;74.50;;;70.43;;
15929;SDS011;8064;51.142;4.780;2023-06-14T05:26:15;76.10;;;72.20;;
15929;SDS011;8064;51.142;4.780;2023-06-14T05:28:41;63.70;;;60.30;;
15929;SDS011;8064;51.142;4.780;2023-06-14T05:31:07;68.00;;;64.27;;
15929;SDS011;8064;51.142;4.780;2023-06-14T05:33:33;73.27;;;69.17;;
15929;SDS011;8064;51.142;4.780;2023-06-14T05:35:58;73.30;;;69.47;;
15929;SDS011;8064;51.142;4.780;2023-06-14T05:38:24;77.00;;;72.93;;
15929;SDS011;8064;51.142;4.780;2023-06-14T05:40:50;72.30;;;68.30;;
15929;SDS011;8064;51.142;4.780;2023-06-14T05:43:16;60.27;;;56.97;;
15929;SDS011;8064;51.142;4.780;2023-06-14T05:45:42;61.70;;;58.23;;
15929;SDS011;8064;51.142;4.780;2023-06-14T05:48:07;59.50;;;56.10;;
15929;SDS011;8064;51.142;4.780;2023-06-14T05:50:33;51.43;;;48.30;;
15929;SDS011;8064;51.142;4.780;2023-06-14T05:52:59;66.33;;;62.90;;
15929;SDS011;8064;51.142;4.780;2023-06-14T05:55:25;51.83;;;48.87;;
15929;SDS011;8064;51.142;4.780;2023-06-14T05:57:51;52.07;;;49.27;;
15929;SDS011;8064;51.142;4.780;2023-06-14T06:00:17;59.00;;;55.50;;
15929;SDS011;8064;51.142;4.780;2023-06-14T06:02:43;54.57;;;51.23;;
15929;SDS011;8064;51.142;4.780;2023-06-14T06:05:10;63.43;;;59.93;;
15929;SDS011;8064;51.142;4.780;2023-06-14T06:07:37;49.80;;;46.80;;
15929;SDS011;8064;51.142;4.780;2023-06-14T06:10:04;58.17;;;54.93;;
15929;SDS011;8064;51.142;4.780;2023-06-14T06:12:31;60.53;;;57.13;;
15929;SDS011;8064;51.142;4.780;2023-06-14T06:14:57;62.17;;;58.80;;
15929;SDS011;8064;51.142;4.780;2023-06-14T06:17:24;57.60;;;54.13;;
15929;SDS011;8064;51.142;4.780;2023-06-14T06:19:51;84.83;;;80.53;;
15929;SDS011;8064;51.142;4.780;2023-06-14T06:22:16;75.40;;;71.72;;
15929;SDS011;8064;51.142;4.780;2023-06-14T06:24:42;100.43;;;95.03;;
15929;SDS011;8064;51.142;4.780;2023-06-14T06:27:08;84.75;;;80.60;;
15929;SDS011;8064;51.142;4.780;2023-06-14T06:29:34;70.38;;;66.40;;
15929;SDS011;8064;51.142;4.780;2023-06-14T06:32:00;59.33;;;56.17;;
15929;SDS011;8064;51.142;4.780;2023-06-14T06:34:27;99.93;;;95.10;;
15929;SDS011;8064;51.142;4.780;2023-06-14T06:36:53;78.95;;;75.07;;
15929;SDS011;8064;51.142;4.780;2023-06-14T06:39:18;71.00;;;67.05;;
15929;SDS011;8064;51.142;4.780;2023-06-14T06:41:44;75.57;;;71.85;;
15929;SDS011;8064;51.142;4.780;2023-06-14T06:44:10;85.18;;;80.88;;
15929;SDS011;8064;51.142;4.780;2023-06-14T06:46:36;124.47;;;118.40;;
15929;SDS011;8064;51.142;4.780;2023-06-14T06:49:13;123.60;;;117.75;;
15929;SDS011;8064;51.142;4.780;2023-06-14T06:51:41;104.88;;;99.72;;
15929;SDS011;8064;51.142;4.780;2023-06-14T06:54:08;108.95;;;103.03;;
15929;SDS011;8064;51.142;4.780;2023-06-14T06:56:34;115.05;;;109.63;;
15929;SDS011;8064;51.142;4.780;2023-06-14T06:59:00;102.10;;;96.72;;
15929;SDS011;8064;51.142;4.780;2023-06-14T07:01:26;95.18;;;89.82;;
15929;SDS011;8064;51.142;4.780;2023-06-14T07:03:54;116.13;;;110.05;;
15929;SDS011;8064;51.142;4.780;2023-06-14T07:06:20;170.57;;;162.50;;
15929;SDS011;8064;51.142;4.780;2023-06-14T07:08:46;101.88;;;96.85;;
15929;SDS011;8064;51.142;4.780;2023-06-14T07:11:13;97.60;;;92.28;;
15929;SDS011;8064;51.142;4.780;2023-06-14T07:13:39;105.05;;;100.07;;
15929;SDS011;8064;51.142;4.780;2023-06-14T07:16:05;115.00;;;109.30;;
15929;SDS011;8064;51.142;4.780;2023-06-14T07:18:31;147.00;;;139.93;;
15929;SDS011;8064;51.142;4.780;2023-06-14T07:20:57;172.13;;;163.90;;
15929;SDS011;8064;51.142;4.780;2023-06-14T07:23:23;143.15;;;136.60;;
15929;SDS011;8064;51.142;4.780;2023-06-14T07:25:49;140.50;;;133.52;;
15929;SDS011;8064;51.142;4.780;2023-06-14T07:28:16;132.40;;;125.90;;
15929;SDS011;8064;51.142;4.780;2023-06-14T07:30:42;163.88;;;155.75;;
15929;SDS011;8064;51.142;4.780;2023-06-14T07:33:08;94.55;;;89.90;;
15929;SDS011;8064;51.142;4.780;2023-06-14T07:35:35;135.13;;;128.73;;
15929;SDS011;8064;51.142;4.780;2023-06-14T07:38:01;99.07;;;94.13;;
15929;SDS011;8064;51.142;4.780;2023-06-14T07:40:26;86.97;;;82.53;;
15929;SDS011;8064;51.142;4.780;2023-06-14T07:42:52;133.48;;;127.10;;
15929;SDS011;8064;51.142;4.780;2023-06-14T07:45:20;115.78;;;110.30;;
15929;SDS011;8064;51.142;4.780;2023-06-14T07:47:45;69.30;;;65.32;;
15929;SDS011;8064;51.142;4.780;2023-06-14T07:50:11;85.47;;;81.15;;
15929;SDS011;8064;51.142;4.780;2023-06-14T07:52:38;136.57;;;129.88;;
15929;SDS011;8064;51.142;4.780;2023-06-14T07:55:05;72.65;;;69.03;;
15929;SDS011;8064;51.142;4.780;2023-06-14T07:57:31;65.28;;;61.47;;
15929;SDS011;8064;51.142;4.780;2023-06-14T07:59:57;61.17;;;57.85;;
15929;SDS011;8064;51.142;4.780;2023-06-14T08:02:23;63.05;;;59.85;;
15929;SDS011;8064;51.142;4.780;2023-06-14T08:04:49;82.28;;;77.90;;
15929;SDS011;8064;51.142;4.780;2023-06-14T08:07:15;87.25;;;83.10;;
15929;SDS011;8064;51.142;4.780;2023-06-14T08:09:40;73.10;;;69.35;;
15929;SDS011;8064;51.142;4.780;2023-06-14T08:12:06;63.15;;;59.72;;
15929;SDS011;8064;51.142;4.780;2023-06-14T08:14:34;81.35;;;77.10;;
15929;SDS011;8064;51.142;4.780;2023-06-14T08:17:00;85.82;;;80.97;;
15929;SDS011;8064;51.142;4.780;2023-06-14T08:19:26;75.82;;;72.03;;
15929;SDS011;8064;51.142;4.780;2023-06-14T08:21:53;84.55;;;80.10;;
15929;SDS011;8064;51.142;4.780;2023-06-14T08:24:22;62.80;;;59.38;;
15929;SDS011;8064;51.142;4.780;2023-06-14T08:26:52;86.63;;;82.30;;
15929;SDS011;8064;51.142;4.780;2023-06-14T08:29:22;97.70;;;92.25;;
15929;SDS011;8064;51.142;4.780;2023-06-14T08:31:47;119.05;;;113.40;;
15929;SDS011;8064;51.142;4.780;2023-06-14T08:34:13;94.30;;;89.28;;
15929;SDS011;8064;51.142;4.780;2023-06-14T08:36:39;108.22;;;103.05;;
15929;SDS011;8064;51.142;4.780;2023-06-14T08:39:06;101.00;;;95.82;;
15929;SDS011;8064;51.142;4.780;2023-06-14T08:41:34;124.25;;;118.50;;
15929;SDS011;8064;51.142;4.780;2023-06-14T08:44:00;118.57;;;112.57;;
15929;SDS011;8064;51.142;4.780;2023-06-14T08:46:26;103.63;;;98.13;;
15929;SDS011;8064;51.142;4.780;2023-06-14T08:48:54;107.18;;;101.95;;
15929;SDS011;8064;51.142;4.780;2023-06-14T08:51:22;163.88;;;156.07;;
15929;SDS011;8064;51.142;4.780;2023-06-14T08:53:54;127.25;;;120.88;;
15929;SDS011;8064;51.142;4.780;2023-06-14T08:56:25;174.57;;;166.20;;
15929;SDS011;8064;51.142;4.780;2023-06-14T08:58:52;142.38;;;135.40;;
15929;SDS011;8064;51.142;4.780;2023-06-14T09:01:19;115.30;;;109.70;;
15929;SDS011;8064;51.142;4.780;2023-06-14T09:03:46;84.00;;;79.38;;
15929;SDS011;8064;51.142;4.780;2023-06-14T09:06:13;92.30;;;87.78;;
15929;SDS011;8064;51.142;4.780;2023-06-14T09:11:23;76.22;;;71.40;;
15929;SDS011;8064;51.142;4.780;2023-06-14T09:13:49;73.97;;;70.47;;
15929;SDS011;8064;51.142;4.780;2023-06-14T09:16:15;70.70;;;67.13;;
15929;SDS011;8064;51.142;4.780;2023-06-14T09:18:42;188.98;;;179.90;;
15929;SDS011;8064;51.142;4.780;2023-06-14T09:21:10;137.60;;;131.13;;
15929;SDS011;8064;51.142;4.780;2023-06-14T09:23:37;113.88;;;108.45;;
15929;SDS011;8064;51.142;4.780;2023-06-14T09:26:06;154.45;;;147.07;;
15929;SDS011;8064;51.142;4.780;2023-06-14T09:28:33;155.32;;;148.23;;
15929;SDS011;8064;51.142;4.780;2023-06-14T09:31:00;174.63;;;166.75;;
15929;SDS011;8064;51.142;4.780;2023-06-14T09:33:26;166.10;;;158.55;;
15929;SDS011;8064;51.142;4.780;2023-06-14T09:35:53;171.13;;;162.90;;
15929;SDS011;8064;51.142;4.780;2023-06-14T09:38:20;173.68;;;165.63;;
15929;SDS011;8064;51.142;4.780;2023-06-14T09:40:46;186.10;;;177.50;;
15929;SDS011;8064;51.142;4.780;2023-06-14T09:43:12;182.23;;;173.82;;
15929;SDS011;8064;51.142;4.780;2023-06-14T09:45:38;146.10;;;139.10;;
15929;SDS011;8064;51.142;4.780;2023-06-14T09:48:06;192.43;;;183.27;;
15929;SDS011;8064;51.142;4.780;2023-06-14T09:50:35;167.98;;;159.90;;
15929;SDS011;8064;51.142;4.780;2023-06-14T09:53:05;214.02;;;204.25;;
15929;SDS011;8064;51.142;4.780;2023-06-14T09:55:34;214.52;;;204.55;;
15929;SDS011;8064;51.142;4.780;2023-06-14T09:58:04;204.48;;;194.95;;
15929;SDS011;8064;51.142;4.780;2023-06-14T10:00:31;198.68;;;189.63;;
15929;SDS011;8064;51.142;4.780;2023-06-14T10:03:03;244.10;;;233.35;;
15929;SDS011;8064;51.142;4.780;2023-06-14T10:05:37;222.38;;;212.07;;
15929;SDS011;8064;51.142;4.780;2023-06-14T10:10:51;339.08;;;323.40;;
15929;SDS011;8064;51.142;4.780;2023-06-14T10:13:17;369.52;;;352.13;;
15929;SDS011;8064;51.142;4.780;2023-06-14T10:18:49;338.67;;;322.60;;
15929;SDS011;8064;51.142;4.780;2023-06-14T10:24:07;384.40;;;365.95;;
15929;SDS011;8064;51.142;4.780;2023-06-14T10:26:39;368.00;;;350.77;;
15929;SDS011;8064;51.142;4.780;2023-06-14T10:29:17;368.80;;;351.48;;
15929;SDS011;8064;51.142;4.780;2023-06-14T10:31:43;340.77;;;324.48;;
15929;SDS011;8064;51.142;4.780;2023-06-14T10:34:11;286.67;;;273.55;;
15929;SDS011;8064;51.142;4.780;2023-06-14T10:36:45;317.05;;;302.90;;
15929;SDS011;8064;51.142;4.780;2023-06-14T10:39:25;326.05;;;311.15;;
15929;SDS011;8064;51.142;4.780;2023-06-14T10:41:52;385.67;;;367.48;;
15929;SDS011;8064;51.142;4.780;2023-06-14T10:46:45;405.92;;;386.45;;
15929;SDS011;8064;51.142;4.780;2023-06-14T10:49:12;410.33;;;390.70;;
15929;SDS011;8064;51.142;4.780;2023-06-14T10:51:44;401.98;;;382.73;;
15929;SDS011;8064;51.142;4.780;2023-06-14T10:54:12;347.60;;;331.67;;
15929;SDS011;8064;51.142;4.780;2023-06-14T10:56:39;345.35;;;329.63;;
15929;SDS011;8064;51.142;4.780;2023-06-14T10:59:22;295.77;;;282.55;;
15929;SDS011;8064;51.142;4.780;2023-06-14T11:04:34;356.33;;;340.05;;
15929;SDS011;8064;51.142;4.780;2023-06-14T11:07:23;348.50;;;332.40;;
15929;SDS011;8064;51.142;4.780;2023-06-14T11:13:02;347.35;;;331.48;;
15929;SDS011;8064;51.142;4.780;2023-06-14T11:15:30;347.63;;;331.83;;
15929;SDS011;8064;51.142;4.780;2023-06-14T11:17:57;341.02;;;325.55;;
15929;SDS011;8064;51.142;4.780;2023-06-14T11:20:25;353.67;;;337.55;;
15929;SDS011;8064;51.142;4.780;2023-06-14T11:22:52;314.08;;;299.92;;
15929;SDS011;8064;51.142;4.780;2023-06-14T11:25:18;326.02;;;311.30;;
15929;SDS011;8064;51.142;4.780;2023-06-14T11:27:45;324.67;;;310.02;;
15929;SDS011;8064;51.142;4.780;2023-06-14T11:30:13;324.63;;;309.80;;
15929;SDS011;8064;51.142;4.780;2023-06-14T11:32:38;352.73;;;336.63;;
15929;SDS011;8064;51.142;4.780;2023-06-14T11:35:06;305.77;;;291.90;;
15929;SDS011;8064;51.142;4.780;2023-06-14T11:37:33;312.48;;;298.73;;
15929;SDS011;8064;51.142;4.780;2023-06-14T11:40:02;312.80;;;299.13;;
15929;SDS011;8064;51.142;4.780;2023-06-14T11:42:33;327.17;;;312.25;;
15929;SDS011;8064;51.142;4.780;2023-06-14T11:45:00;360.08;;;342.25;;
15929;SDS011;8064;51.142;4.780;2023-06-14T11:50:10;345.60;;;330.02;;
15929;SDS011;8064;51.142;4.780;2023-06-14T11:52:38;303.55;;;289.55;;
15929;SDS011;8064;51.142;4.780;2023-06-14T11:55:03;366.38;;;349.50;;
15929;SDS011;8064;51.142;4.780;2023-06-14T11:57:33;376.65;;;359.00;;
15929;SDS011;8064;51.142;4.780;2023-06-14T12:00:02;355.35;;;338.77;;
15929;SDS011;8064;51.142;4.780;2023-06-14T12:02:32;316.25;;;302.33;;
15929;SDS011;8064;51.142;4.780;2023-06-14T12:05:03;425.55;;;404.13;;
15929;SDS011;8064;51.142;4.780;2023-06-14T12:08:03;317.38;;;303.15;;
15929;SDS011;8064;51.142;4.780;2023-06-14T12:10:39;317.90;;;303.85;;
15929;SDS011;8064;51.142;4.780;2023-06-14T12:13:37;302.48;;;289.05;;
15929;SDS011;8064;51.142;4.780;2023-06-14T12:16:06;393.50;;;373.77;;
15929;SDS011;8064;51.142;4.780;2023-06-14T12:18:33;286.20;;;273.75;;
15929;SDS011;8064;51.142;4.780;2023-06-14T12:21:00;312.23;;;298.08;;
15929;SDS011;8064;51.142;4.780;2023-06-14T12:26:16;222.32;;;212.60;;
15929;SDS011;8064;51.142;4.780;2023-06-14T12:28:44;311.60;;;297.80;;
15929;SDS011;8064;51.142;4.780;2023-06-14T12:31:11;282.38;;;269.92;;
15929;SDS011;8064;51.142;4.780;2023-06-14T12:33:38;251.40;;;240.10;;
15929;SDS011;8064;51.142;4.780;2023-06-14T12:36:04;262.60;;;249.93;;
15929;SDS011;8064;51.142;4.780;2023-06-14T12:38:33;208.20;;;199.05;;
15929;SDS011;8064;51.142;4.780;2023-06-14T12:40:58;433.20;;;409.33;;
15929;SDS011;8064;51.142;4.780;2023-06-14T12:43:25;298.20;;;285.30;;
15929;SDS011;8064;51.142;4.780;2023-06-14T12:45:51;261.60;;;250.40;;
15929;SDS011;8064;51.142;4.780;2023-06-14T12:48:17;228.63;;;218.43;;
15929;SDS011;8064;51.142;4.780;2023-06-14T12:50:43;245.90;;;234.77;;
15929;SDS011;8064;51.142;4.780;2023-06-14T12:53:08;288.98;;;275.92;;
15929;SDS011;8064;51.142;4.780;2023-06-14T12:55:34;246.73;;;235.80;;
15929;SDS011;8064;51.142;4.780;2023-06-14T12:58:00;176.32;;;168.60;;
15929;SDS011;8064;51.142;4.780;2023-06-14T13:00:26;220.13;;;210.15;;
15929;SDS011;8064;51.142;4.780;2023-06-14T13:02:52;269.88;;;258.30;;
15929;SDS011;8064;51.142;4.780;2023-06-14T13:05:18;277.90;;;265.88;;
15929;SDS011;8064;51.142;4.780;2023-06-14T13:07:44;290.92;;;277.80;;
15929;SDS011;8064;51.142;4.780;2023-06-14T13:10:10;268.52;;;256.25;;
15929;SDS011;8064;51.142;4.780;2023-06-14T13:12:36;273.98;;;261.98;;
15929;SDS011;8064;51.142;4.780;2023-06-14T13:15:02;163.38;;;155.93;;
15929;SDS011;8064;51.142;4.780;2023-06-14T13:17:28;250.75;;;239.80;;
15929;SDS011;8064;51.142;4.780;2023-06-14T13:19:53;187.40;;;179.27;;
15929;SDS011;8064;51.142;4.780;2023-06-14T13:22:19;223.05;;;213.05;;
15929;SDS011;8064;51.142;4.780;2023-06-14T13:24:45;228.70;;;218.73;;
15929;SDS011;8064;51.142;4.780;2023-06-14T13:27:11;194.82;;;186.02;;
15929;SDS011;8064;51.142;4.780;2023-06-14T13:29:39;204.85;;;195.63;;
15929;SDS011;8064;51.142;4.780;2023-06-14T13:32:07;202.70;;;193.73;;
15929;SDS011;8064;51.142;4.780;2023-06-14T13:34:37;165.32;;;157.73;;
15929;SDS011;8064;51.142;4.780;2023-06-14T13:37:03;166.07;;;158.43;;
15929;SDS011;8064;51.142;4.780;2023-06-14T13:39:29;164.20;;;156.50;;
15929;SDS011;8064;51.142;4.780;2023-06-14T13:41:55;167.60;;;159.77;;
15929;SDS011;8064;51.142;4.780;2023-06-14T13:44:21;160.68;;;153.43;;
15929;SDS011;8064;51.142;4.780;2023-06-14T13:46:47;166.05;;;158.55;;
15929;SDS011;8064;51.142;4.780;2023-06-14T13:49:13;182.88;;;174.40;;
15929;SDS011;8064;51.142;4.780;2023-06-14T13:51:38;143.70;;;137.38;;
15929;SDS011;8064;51.142;4.780;2023-06-14T13:54:04;155.80;;;148.65;;
15929;SDS011;8064;51.142;4.780;2023-06-14T13:56:30;174.32;;;166.75;;
15929;SDS011;8064;51.142;4.780;2023-06-14T13:58:56;214.50;;;204.45;;
15929;SDS011;8064;51.142;4.780;2023-06-14T14:01:22;215.85;;;206.02;;
15929;SDS011;8064;51.142;4.780;2023-06-14T14:03:48;164.45;;;157.05;;
15929;SDS011;8064;51.142;4.780;2023-06-14T14:06:14;169.63;;;161.77;;
15929;SDS011;8064;51.142;4.780;2023-06-14T14:08:41;147.50;;;140.40;;
15929;SDS011;8064;51.142;4.780;2023-06-14T14:11:07;178.38;;;170.20;;
15929;SDS011;8064;51.142;4.780;2023-06-14T14:13:34;178.15;;;170.05;;
15929;SDS011;8064;51.142;4.780;2023-06-14T14:16:01;192.50;;;183.95;;
15929;SDS011;8064;51.142;4.780;2023-06-14T14:18:28;168.80;;;161.20;;
15929;SDS011;8064;51.142;4.780;2023-06-14T14:20:54;185.98;;;177.82;;
15929;SDS011;8064;51.142;4.780;2023-06-14T14:23:21;206.45;;;196.18;;
15929;SDS011;8064;51.142;4.780;2023-06-14T14:25:47;146.30;;;139.88;;
15929;SDS011;8064;51.142;4.780;2023-06-14T14:28:13;169.55;;;161.70;;
15929;SDS011;8064;51.142;4.780;2023-06-14T14:30:41;155.05;;;148.43;;
15929;SDS011;8064;51.142;4.780;2023-06-14T14:33:07;158.45;;;151.57;;
15929;SDS011;8064;51.142;4.780;2023-06-14T14:35:33;148.38;;;141.85;;
15929;SDS011;8064;51.142;4.780;2023-06-14T14:37:59;215.52;;;205.73;;
15929;SDS011;8064;51.142;4.780;2023-06-14T14:40:25;169.27;;;161.77;;
15929;SDS011;8064;51.142;4.780;2023-06-14T14:42:51;142.40;;;136.02;;
15929;SDS011;8064;51.142;4.780;2023-06-14T14:45:17;165.98;;;158.35;;
15929;SDS011;8064;51.142;4.780;2023-06-14T14:47:43;197.75;;;189.10;;
15929;SDS011;8064;51.142;4.780;2023-06-14T14:50:09;156.82;;;149.98;;